createdAt,value
2022-10-22T00:04:08.283Z,3.95
2022-10-22T00:09:01.708Z,3.67
2022-10-22T00:13:54.803Z,3.20
2022-10-22T00:18:48.180Z,3.13
2022-10-22T00:23:42.902Z,2.78
2022-10-22T00:28:37.845Z,2.85
2022-10-22T00:33:31.023Z,2.55
2022-10-22T00:38:23.993Z,2.90
2022-10-22T00:43:19.899Z,2.55
2022-10-22T00:48:31.224Z,2.40
2022-10-22T00:53:31.040Z,3.17
2022-10-22T00:58:27.035Z,2.60
2022-10-22T01:03:21.558Z,2.45
2022-10-22T01:08:46.234Z,1.98
2022-10-22T01:13:48.565Z,2.25
2022-10-22T01:18:55.892Z,1.60
2022-10-22T01:24:21.435Z,2.10
2022-10-22T01:29:22.070Z,1.55
2022-10-22T01:34:19.383Z,1.55
2022-10-22T01:39:32.825Z,1.50
2022-10-22T01:44:53.460Z,1.20
2022-10-22T01:50:04.450Z,1.30
2022-10-22T01:55:15.768Z,1.10
2022-10-22T02:00:12.828Z,1.00
2022-10-22T02:05:07.993Z,1.15
2022-10-22T02:10:03.764Z,1.00
2022-10-22T02:15:00.192Z,0.70
2022-10-22T02:20:23.234Z,1.02
2022-10-22T02:25:17.880Z,0.63
2022-10-22T02:30:18.569Z,0.75
2022-10-22T02:35:15.579Z,0.70
2022-10-22T02:40:10.818Z,0.60
2022-10-22T02:45:04.916Z,0.70
2022-10-22T02:49:57.503Z,0.60
2022-10-22T02:54:55.468Z,0.60
2022-10-22T02:59:49.558Z,0.70
2022-10-22T03:04:43.161Z,0.63
2022-10-22T03:09:36.437Z,0.45
2022-10-22T03:14:30.648Z,0.57
2022-10-22T03:19:24.416Z,0.45
2022-10-22T03:24:32.408Z,0.45
2022-10-22T03:29:27.958Z,0.32
2022-10-22T03:34:21.173Z,0.30
2022-10-22T03:39:16.480Z,0.32
2022-10-22T03:44:10.870Z,0.30
2022-10-22T03:49:04.185Z,0.32
2022-10-22T03:53:57.497Z,0.30
2022-10-22T03:58:51.308Z,0.20
2022-10-22T04:03:45.292Z,0.32
2022-10-22T04:08:41.207Z,0.20
2022-10-22T04:13:34.230Z,0.20
2022-10-22T04:18:28.118Z,0.30
2022-10-22T04:23:21.621Z,0.32
2022-10-22T04:28:14.708Z,0.22
2022-10-22T04:33:08.667Z,0.30
2022-10-22T04:38:02.866Z,0.65
2022-10-22T04:42:57.381Z,0.20
2022-10-22T04:47:50.810Z,0.30
2022-10-22T04:52:44.851Z,0.30
2022-10-22T04:57:39.146Z,0.20
2022-10-22T05:02:33.655Z,0.10
2022-10-22T05:07:26.717Z,0.20
2022-10-22T05:12:19.340Z,0.43
2022-10-22T05:17:13.733Z,0.17
2022-10-22T05:22:07.572Z,0.65
2022-10-22T05:27:02.028Z,0.57
2022-10-22T05:31:55.492Z,1.00
2022-10-22T05:36:49.631Z,1.08
2022-10-22T05:41:43.693Z,1.05
2022-10-22T05:46:37.432Z,1.45
2022-10-22T05:51:33.421Z,1.00
2022-10-22T05:56:29.336Z,1.00
2022-10-22T06:01:28.761Z,1.33
2022-10-22T06:06:34.995Z,2.53
2022-10-22T06:11:31.137Z,1.67
2022-10-22T06:16:30.261Z,2.03
2022-10-22T06:21:23.838Z,1.70
2022-10-22T06:26:18.225Z,1.70
2022-10-22T06:31:11.958Z,2.20
2022-10-22T06:36:28.685Z,2.15
2022-10-22T06:41:24.372Z,2.00
2022-10-22T06:46:22.326Z,1.70
2022-10-22T06:51:15.958Z,2.75
2022-10-22T06:56:16.376Z,3.40
2022-10-22T07:01:13.078Z,3.47
2022-10-22T07:06:10.453Z,2.80
2022-10-22T07:11:08.953Z,2.20
2022-10-22T07:16:02.847Z,1.90
2022-10-22T07:20:56.423Z,1.80
2022-10-22T07:25:50.301Z,2.15
2022-10-22T07:30:43.746Z,1.70
2022-10-22T07:35:39.059Z,1.85
2022-10-22T07:40:32.658Z,1.15
2022-10-22T07:45:26.453Z,1.00
2022-10-22T07:50:19.184Z,1.25
2022-10-22T07:55:16.594Z,1.17
2022-10-22T08:00:13.715Z,1.02
2022-10-22T08:05:09.276Z,1.10
2022-10-22T08:10:04.184Z,1.70
2022-10-22T08:14:58.874Z,2.08
2022-10-22T08:19:52.463Z,1.55
2022-10-22T08:24:45.848Z,1.77
2022-10-22T08:29:39.156Z,2.20
2022-10-22T08:34:36.694Z,2.25
2022-10-22T08:39:30.612Z,2.45
2022-10-22T08:44:59.481Z,2.75
2022-10-22T08:49:54.150Z,2.53
2022-10-22T08:55:00.217Z,2.45
2022-10-22T09:00:02.228Z,1.90
2022-10-22T09:05:14.262Z,4.10
2022-10-22T09:10:11.472Z,4.78
2022-10-22T09:15:05.705Z,3.97
2022-10-22T09:20:07.545Z,4.15
2022-10-22T09:25:15.155Z,3.97
2022-10-22T09:30:16.154Z,3.85
2022-10-22T09:35:12.788Z,3.03
2022-10-22T09:40:06.708Z,3.28
2022-10-22T09:45:01.725Z,4.80
2022-10-22T09:50:10.232Z,4.43
2022-10-22T09:55:34.100Z,4.85
2022-10-22T10:00:28.534Z,4.95
2022-10-22T10:05:31.327Z,5.35
2022-10-22T10:10:43.076Z,6.20
2022-10-22T10:15:48.651Z,5.95
2022-10-22T10:20:41.580Z,6.22
2022-10-22T10:25:59.190Z,6.30
2022-10-22T10:31:00.612Z,6.38
2022-10-22T10:36:40.267Z,6.55
2022-10-22T10:42:01.817Z,6.30
2022-10-22T10:47:07.254Z,6.28
2022-10-22T10:52:21.330Z,6.75
2022-10-22T10:57:26.333Z,7.03
2022-10-22T11:02:37.877Z,7.72
2022-10-22T11:07:56.721Z,7.50
2022-10-22T11:12:58.009Z,7.80
2022-10-22T11:17:56.945Z,8.60
2022-10-22T11:23:20.065Z,8.57
2022-10-22T11:28:37.493Z,7.55
2022-10-22T11:33:57.322Z,7.53
2022-10-22T11:38:58.969Z,5.15
2022-10-22T11:44:13.045Z,4.88
2022-10-22T11:49:14.709Z,3.38
2022-10-22T11:54:25.879Z,3.30
2022-10-22T11:59:58.550Z,2.90
2022-10-22T12:04:52.258Z,2.30
2022-10-22T12:14:57.474Z,1.63
2022-10-22T12:20:03.748Z,1.70
2022-10-22T12:25:01.435Z,1.45
2022-10-22T12:29:58.832Z,1.25
2022-10-22T12:34:53.520Z,1.30
2022-10-22T12:39:48.196Z,1.30
2022-10-22T12:44:42.427Z,1.40
2022-10-22T12:49:40.404Z,1.55
2022-10-22T12:54:35.923Z,2.35
2022-10-22T12:59:34.611Z,3.22
2022-10-22T13:04:27.989Z,2.80
2022-10-22T13:09:27.943Z,2.35
2022-10-22T13:14:26.721Z,2.50
2022-10-22T13:19:38.707Z,2.10
2022-10-22T13:24:32.054Z,3.33
2022-10-22T13:29:25.430Z,2.30
2022-10-22T13:34:21.208Z,2.60
2022-10-22T13:39:20.059Z,2.08
2022-10-22T13:44:13.304Z,2.03
2022-10-22T13:49:06.497Z,2.20
2022-10-22T13:54:00.503Z,2.17
2022-10-22T13:58:54.035Z,1.60
2022-10-22T14:03:49.941Z,1.60
2022-10-22T14:08:46.063Z,2.03
2022-10-22T14:13:39.341Z,2.10
2022-10-22T14:18:33.705Z,2.00
2022-10-22T14:23:30.527Z,2.15
2022-10-22T14:28:23.496Z,4.07
2022-10-22T14:33:20.988Z,3.85
2022-10-22T14:38:19.069Z,3.58
2022-10-22T14:43:21.171Z,2.83
2022-10-22T14:48:14.799Z,3.63
2022-10-22T14:53:08.526Z,3.10
2022-10-22T14:58:03.060Z,2.88
2022-10-22T15:02:58.823Z,2.88
2022-10-22T15:07:56.090Z,2.70
2022-10-22T15:12:50.536Z,3.15
2022-10-22T15:17:48.446Z,3.00
2022-10-22T15:22:43.669Z,3.08
2022-10-22T15:27:38.484Z,2.42
2022-10-22T15:32:34.355Z,2.55
2022-10-22T15:37:30.455Z,2.60
2022-10-22T15:42:31.085Z,2.72
2022-10-22T15:47:35.448Z,3.30
2022-10-22T15:52:37.420Z,3.83
2022-10-22T15:57:37.346Z,3.67
2022-10-22T16:02:34.074Z,4.10
2022-10-22T16:07:32.840Z,4.22
2022-10-22T16:12:31.776Z,3.95
2022-10-22T16:17:30.334Z,3.63
2022-10-22T16:22:27.722Z,3.67
2022-10-22T16:27:24.259Z,3.40
2022-10-22T16:32:22.794Z,3.25
2022-10-22T16:37:20.822Z,3.15
2022-10-22T16:42:23.936Z,2.90
2022-10-22T16:47:23.658Z,2.90
2022-10-22T16:52:20.421Z,2.50
2022-10-22T16:57:21.188Z,2.25
2022-10-22T17:02:21.208Z,2.42
2022-10-22T17:07:24.826Z,2.30
2022-10-22T17:12:19.039Z,2.75
2022-10-22T17:17:13.053Z,1.90
2022-10-22T17:22:05.400Z,2.00
2022-10-22T17:26:59.258Z,2.47
2022-10-22T17:31:53.073Z,2.38
2022-10-22T17:36:47.043Z,2.22
2022-10-22T17:41:40.156Z,1.85
2022-10-22T17:46:33.909Z,1.70
2022-10-22T17:51:29.142Z,1.77
2022-10-22T17:56:29.388Z,1.30
2022-10-22T18:01:26.450Z,1.55
2022-10-22T18:06:22.139Z,1.70
2022-10-22T18:11:22.637Z,2.30
2022-10-22T18:16:17.583Z,1.80
2022-10-22T18:21:13.721Z,1.70
2022-10-22T18:26:08.375Z,2.53
2022-10-22T18:31:07.667Z,2.47
2022-10-22T18:36:06.141Z,2.45
2022-10-22T18:41:01.792Z,3.08
2022-10-22T18:45:56.674Z,2.67
2022-10-22T18:51:02.002Z,3.70
2022-10-22T18:55:55.454Z,3.78
2022-10-22T19:00:49.365Z,4.05
2022-10-22T19:05:49.694Z,3.30
2022-10-22T19:10:45.148Z,2.95
2022-10-22T19:15:39.104Z,2.72
2022-10-22T19:20:32.987Z,3.08
2022-10-22T19:25:26.913Z,3.10
2022-10-22T19:30:20.617Z,2.67
2022-10-22T19:35:13.657Z,2.80
2022-10-22T19:40:10.134Z,2.53
2022-10-22T19:45:04.902Z,3.22
2022-10-22T19:49:58.674Z,2.28
2022-10-22T19:54:53.673Z,2.42
2022-10-22T19:59:47.863Z,2.00
2022-10-22T20:04:43.302Z,2.17
2022-10-22T20:09:39.226Z,2.45
2022-10-22T20:14:32.902Z,2.17
2022-10-22T20:19:29.764Z,2.17
2022-10-22T20:24:24.129Z,2.25
2022-10-22T20:29:19.667Z,1.70
2022-10-22T20:34:13.154Z,1.50
2022-10-22T20:39:12.053Z,1.50
2022-10-22T20:44:06.013Z,1.55
2022-10-22T20:49:05.337Z,1.80
2022-10-22T20:53:58.899Z,1.83
2022-10-22T20:59:04.452Z,1.55
2022-10-22T21:03:58.135Z,1.20
2022-10-22T21:08:53.161Z,1.27
2022-10-22T21:13:47.831Z,0.80
2022-10-22T21:18:41.267Z,0.93
2022-10-22T21:23:35.701Z,0.90
2022-10-22T21:33:23.643Z,1.13
2022-10-22T21:38:17.040Z,1.23
2022-10-22T21:43:14.359Z,1.20
2022-10-22T21:48:08.101Z,0.95
2022-10-22T21:53:01.356Z,1.13
2022-10-22T21:57:55.540Z,1.27
2022-10-22T22:02:48.716Z,0.90
2022-10-22T22:07:42.497Z,1.00
2022-10-22T22:12:36.916Z,1.00
2022-10-22T22:17:34.085Z,1.02
2022-10-22T22:22:28.365Z,1.20
2022-10-22T22:27:21.661Z,1.23
2022-10-22T22:32:16.356Z,1.08
2022-10-22T22:37:09.861Z,1.30
2022-10-22T22:42:03.921Z,1.30
2022-10-22T22:46:57.208Z,1.20
2022-10-22T22:51:51.381Z,1.45
2022-10-22T22:56:44.372Z,1.30
2022-10-22T23:01:39.723Z,1.02
2022-10-22T23:06:37.144Z,1.20
2022-10-22T23:11:30.214Z,1.23
2022-10-22T23:16:30.005Z,0.77
2022-10-22T23:21:28.986Z,1.20
2022-10-22T23:26:29.499Z,0.93
2022-10-22T23:31:23.600Z,0.95
2022-10-22T23:36:17.464Z,1.20
2022-10-22T23:41:11.093Z,1.27
2022-10-22T23:46:13.209Z,0.95
2022-10-22T23:51:08.097Z,1.00
2022-10-22T23:56:09.845Z,0.65
